createdAt,value
2023-05-23T00:00:17.997Z,50130.45
2023-05-23T00:03:06.656Z,50128.05
2023-05-23T00:05:36.225Z,50145.24
2023-05-23T00:08:04.432Z,50129.65
2023-05-23T00:10:32.603Z,50125.25
2023-05-23T00:13:01.553Z,50116.05
2023-05-23T00:15:30.153Z,50124.85
2023-05-23T00:18:00.343Z,50118.45
2023-05-23T00:20:30.597Z,50122.45
2023-05-23T00:22:58.764Z,50118.45
2023-05-23T00:25:34.159Z,50131.25
2023-05-23T00:28:03.939Z,50132.84
2023-05-23T00:30:33.676Z,50125.25
2023-05-23T00:33:02.255Z,50130.85
2023-05-23T00:35:30.583Z,50134.05
2023-05-23T00:37:58.669Z,50136.05
2023-05-23T00:40:27.056Z,50132.04
2023-05-23T00:42:55.187Z,50131.65
2023-05-23T00:45:23.704Z,50128.45
2023-05-23T00:47:53.152Z,50146.04
2023-05-23T00:50:22.258Z,50118.45
2023-05-23T00:52:50.970Z,50134.45
2023-05-23T00:55:19.385Z,50141.64
2023-05-23T00:57:51.374Z,50144.84
2023-05-23T01:00:20.848Z,50116.46
2023-05-23T01:02:53.972Z,50139.64
2023-05-23T01:05:25.303Z,50132.05
2023-05-23T01:07:54.712Z,50132.85
2023-05-23T01:10:30.334Z,50141.64
2023-05-23T01:12:58.612Z,50132.84
2023-05-23T01:15:37.274Z,50139.25
2023-05-23T01:18:20.144Z,50127.65
2023-05-23T01:20:56.257Z,50137.65
2023-05-23T01:23:55.884Z,50141.64
2023-05-23T01:26:55.038Z,50144.04
2023-05-23T01:29:28.666Z,50147.64
2023-05-23T01:31:59.225Z,50136.45
2023-05-23T01:34:30.148Z,50132.85
2023-05-23T01:37:00.574Z,50148.84
2023-05-23T01:39:28.787Z,50142.84
2023-05-23T01:41:57.215Z,50127.25
2023-05-23T01:44:25.383Z,50138.04
2023-05-23T01:46:53.490Z,50147.64
2023-05-23T01:49:23.747Z,50135.24
2023-05-23T01:51:54.229Z,50141.64
2023-05-23T01:54:23.077Z,50152.45
2023-05-23T01:56:51.444Z,50158.04
2023-05-23T01:59:19.613Z,50144.84
2023-05-23T02:01:47.856Z,50127.25
2023-05-23T02:04:16.348Z,50142.04
2023-05-23T02:06:44.545Z,50150.84
2023-05-23T02:09:14.820Z,50134.85
2023-05-23T02:11:43.664Z,50146.45
2023-05-23T02:14:13.092Z,50142.45
2023-05-23T02:16:41.558Z,50150.04
2023-05-23T02:19:09.840Z,50142.84
2023-05-23T02:21:39.188Z,50143.64
2023-05-23T02:24:07.946Z,50146.84
2023-05-23T02:26:36.085Z,50133.24
2023-05-23T02:29:04.421Z,50122.05
2023-05-23T02:31:32.704Z,50138.84
2023-05-23T02:34:04.342Z,50139.65
2023-05-23T02:36:33.580Z,50138.84
2023-05-23T02:39:01.939Z,50134.04
2023-05-23T02:41:30.698Z,50151.24
2023-05-23T02:44:00.095Z,50137.25
2023-05-23T02:46:28.486Z,50132.04
2023-05-23T02:48:56.720Z,50128.85
2023-05-23T02:51:24.928Z,50150.04
2023-05-23T02:53:53.231Z,50123.25
2023-05-23T02:56:22.953Z,50146.04
2023-05-23T02:58:53.477Z,50121.65
2023-05-23T03:01:21.655Z,50137.25
2023-05-23T03:03:50.152Z,50133.65
2023-05-23T03:06:18.560Z,50133.25
2023-05-23T03:08:48.295Z,50142.84
2023-05-23T03:11:16.521Z,50143.64
2023-05-23T03:13:45.554Z,50130.05
2023-05-23T03:16:13.795Z,50132.45
2023-05-23T03:18:42.298Z,50126.45
2023-05-23T03:21:10.576Z,50136.84
2023-05-23T03:23:39.068Z,50128.05
2023-05-23T03:26:07.329Z,50120.85
2023-05-23T03:28:37.034Z,50132.45
2023-05-23T03:31:05.398Z,50110.86
2023-05-23T03:33:33.859Z,50133.64
2023-05-23T03:36:02.630Z,50122.45
2023-05-23T03:38:30.991Z,50136.84
2023-05-23T03:40:59.234Z,50125.25
2023-05-23T03:43:27.923Z,50132.85
2023-05-23T03:45:56.079Z,50140.85
2023-05-23T03:48:24.298Z,50127.65
2023-05-23T03:50:52.645Z,50123.25
2023-05-23T03:53:20.891Z,50124.45
2023-05-23T03:55:49.117Z,50140.05
2023-05-23T03:58:18.570Z,50117.65
2023-05-23T04:00:47.401Z,50102.46
2023-05-23T04:03:17.774Z,50126.85
2023-05-23T04:05:46.624Z,50138.84
2023-05-23T04:08:16.452Z,50138.84
2023-05-23T04:10:45.616Z,50114.45
2023-05-23T04:13:13.823Z,50118.45
2023-05-23T04:15:43.004Z,50112.85
2023-05-23T04:18:13.077Z,50107.66
2023-05-23T04:20:42.121Z,50133.25
2023-05-23T04:23:10.533Z,50123.65
2023-05-23T04:25:41.425Z,50108.86
2023-05-23T04:28:19.077Z,50122.05
2023-05-23T04:30:49.571Z,50117.25
2023-05-23T04:33:22.571Z,50126.85
2023-05-23T04:35:52.482Z,50122.45
2023-05-23T04:38:22.245Z,50116.85
2023-05-23T04:40:52.957Z,50132.85
2023-05-23T04:43:43.469Z,50145.64
2023-05-23T04:46:22.342Z,50126.85
2023-05-23T04:49:00.374Z,50109.66
2023-05-23T04:51:30.087Z,50117.25
2023-05-23T04:54:05.021Z,50115.66
2023-05-23T04:56:34.918Z,50118.05
2023-05-23T04:59:03.151Z,50127.25
2023-05-23T05:01:32.025Z,50128.05
2023-05-23T05:04:01.381Z,50114.45
2023-05-23T05:06:31.203Z,50108.86
2023-05-23T05:09:01.933Z,50108.86
2023-05-23T05:11:30.726Z,50126.85
2023-05-23T05:14:01.422Z,50124.45
2023-05-23T05:16:29.618Z,50134.04
2023-05-23T05:18:57.905Z,50120.05
2023-05-23T05:21:27.102Z,50130.45
2023-05-23T05:23:57.843Z,50116.05
2023-05-23T05:26:27.264Z,50131.25
2023-05-23T05:28:57.161Z,50121.65
2023-05-23T05:31:25.426Z,50108.46
2023-05-23T05:33:54.621Z,50121.65
2023-05-23T05:36:22.845Z,50118.46
2023-05-23T05:38:53.960Z,50114.85
2023-05-23T05:41:22.848Z,50125.65
2023-05-23T05:43:53.040Z,50120.05
2023-05-23T05:46:21.997Z,50140.84
2023-05-23T05:48:50.887Z,50123.25
2023-05-23T05:51:21.083Z,50113.66
2023-05-23T05:53:50.047Z,50136.05
2023-05-23T05:56:19.758Z,50126.45
2023-05-23T05:58:48.000Z,50125.65
2023-05-23T06:01:17.737Z,50130.85
2023-05-23T06:03:46.184Z,50127.25
2023-05-23T06:06:14.789Z,50120.45
2023-05-23T06:08:44.382Z,50130.05
2023-05-23T06:11:18.125Z,50128.45
2023-05-23T06:13:46.579Z,50112.45
2023-05-23T06:16:15.573Z,50110.85
2023-05-23T06:18:44.153Z,50123.25
2023-05-23T06:21:12.919Z,50121.65
2023-05-23T06:23:43.657Z,50091.26
2023-05-23T06:26:13.156Z,50102.46
2023-05-23T06:28:41.690Z,50089.66
2023-05-23T06:31:11.019Z,50100.46
2023-05-23T06:33:40.056Z,50102.46
2023-05-23T06:36:10.038Z,50110.05
2023-05-23T06:38:38.495Z,50095.66
2023-05-23T06:41:07.613Z,50102.86
2023-05-23T06:43:37.407Z,50100.06
2023-05-23T06:46:24.983Z,50098.06
2023-05-23T06:49:02.512Z,50080.86
2023-05-23T06:51:35.140Z,50092.46
2023-05-23T06:54:03.594Z,50085.66
2023-05-23T06:56:31.971Z,50080.07
2023-05-23T06:59:01.334Z,50102.06
2023-05-23T07:01:31.135Z,50088.86
2023-05-23T07:03:59.436Z,50076.46
2023-05-23T07:06:27.776Z,50093.26
2023-05-23T07:08:56.012Z,50076.87
2023-05-23T07:11:25.444Z,50074.87
2023-05-23T07:13:56.991Z,50091.26
2023-05-23T07:16:39.505Z,50078.46
2023-05-23T07:19:09.111Z,50078.87
2023-05-23T07:21:43.435Z,50098.46
2023-05-23T07:24:12.374Z,50088.87
2023-05-23T07:26:45.738Z,50090.06
2023-05-23T07:29:15.334Z,50100.06
2023-05-23T07:31:44.832Z,50103.26
2023-05-23T07:34:14.693Z,50099.26
2023-05-23T07:36:51.290Z,50094.06
2023-05-23T07:39:22.836Z,50086.47
2023-05-23T07:41:52.079Z,50090.06
2023-05-23T07:44:23.215Z,50105.26
2023-05-23T07:46:54.296Z,50093.66
2023-05-23T07:49:23.660Z,50099.66
2023-05-23T07:51:52.440Z,50099.26
2023-05-23T07:54:21.025Z,50103.66
2023-05-23T07:56:50.669Z,50087.26
2023-05-23T07:59:20.787Z,50102.46
2023-05-23T08:01:51.305Z,50117.25
2023-05-23T08:04:21.902Z,50101.66
2023-05-23T08:09:28.707Z,50111.66
2023-05-23T08:11:57.974Z,50112.05
2023-05-23T08:14:38.225Z,50097.66
2023-05-23T08:17:35.434Z,50109.66
2023-05-23T08:20:06.005Z,50123.25
2023-05-23T08:22:36.289Z,50108.86
2023-05-23T08:25:06.808Z,50114.46
2023-05-23T08:27:37.259Z,50110.86
2023-05-23T08:30:12.783Z,50102.86
2023-05-23T08:32:41.145Z,50123.25
2023-05-23T08:35:11.631Z,50119.66
2023-05-23T08:37:43.022Z,50108.46
2023-05-23T08:40:23.122Z,50110.46
2023-05-23T08:43:05.272Z,50105.66
2023-05-23T08:45:36.171Z,50122.45
2023-05-23T08:48:10.240Z,50126.05
2023-05-23T08:50:46.964Z,50110.05
2023-05-23T08:53:20.692Z,50119.25
2023-05-23T08:55:52.064Z,50123.25
2023-05-23T08:58:21.196Z,50129.25
2023-05-23T09:00:55.683Z,50113.25
2023-05-23T09:03:29.944Z,50112.86
2023-05-23T09:06:08.253Z,50112.45
2023-05-23T09:08:37.277Z,50112.05
2023-05-23T09:11:06.983Z,50114.05
2023-05-23T09:13:38.270Z,50114.86
2023-05-23T09:16:11.430Z,50108.05
2023-05-23T09:18:46.457Z,50092.86
2023-05-23T09:21:16.846Z,50099.26
2023-05-23T09:44:09.346Z,50058.07
2023-05-23T09:46:38.952Z,50054.08
2023-05-23T09:49:22.719Z,50079.67
2023-05-23T09:51:59.948Z,50061.68
2023-05-23T09:54:29.720Z,50050.88
2023-05-23T09:57:01.635Z,50069.27
2023-05-23T09:59:32.551Z,50071.67
2023-05-23T10:02:04.026Z,50060.88
2023-05-23T10:04:35.713Z,50068.07
2023-05-23T10:07:14.792Z,50061.68
2023-05-23T10:09:53.194Z,50054.88
2023-05-23T10:12:52.530Z,50075.27
2023-05-23T10:15:25.125Z,50061.68
2023-05-23T10:18:06.131Z,50069.67
2023-05-23T10:20:39.316Z,50070.07
2023-05-23T10:23:07.997Z,50064.88
2023-05-23T10:25:37.474Z,50064.47
2023-05-23T10:28:07.972Z,50061.27
2023-05-23T10:30:44.054Z,50063.27
2023-05-23T10:33:17.140Z,50058.88
2023-05-23T10:36:22.460Z,50057.68
2023-05-23T10:39:00.885Z,50080.07
2023-05-23T10:41:56.931Z,50070.47
2023-05-23T10:44:32.850Z,50056.48
2023-05-23T10:47:05.973Z,50067.67
2023-05-23T10:49:42.905Z,50067.67
2023-05-23T10:52:19.546Z,50078.87
2023-05-23T10:54:54.880Z,50042.08
2023-05-23T10:57:29.189Z,50057.68
2023-05-23T10:59:57.888Z,50049.68
2023-05-23T11:02:29.077Z,50061.27
2023-05-23T11:05:22.927Z,50070.87
2023-05-23T11:08:16.433Z,50075.67
2023-05-23T11:11:06.648Z,50080.47
2023-05-23T11:13:58.189Z,50082.46
2023-05-23T11:16:41.923Z,50095.26
2023-05-23T11:19:20.570Z,50092.06
2023-05-23T11:22:01.733Z,50072.07
2023-05-23T11:24:50.502Z,50076.07
2023-05-23T11:27:28.625Z,50084.06
2023-05-23T11:30:02.324Z,50089.66
2023-05-23T11:32:32.109Z,50089.66
2023-05-23T11:35:08.426Z,50083.27
2023-05-23T11:37:38.709Z,50083.26
2023-05-23T11:40:55.049Z,50079.27
2023-05-23T11:43:24.001Z,50086.86
2023-05-23T11:45:52.225Z,50087.66
2023-05-23T11:48:24.520Z,50078.47
2023-05-23T11:50:54.504Z,50074.07
2023-05-23T11:53:25.892Z,50074.07
2023-05-23T11:55:57.931Z,50093.66
2023-05-23T11:58:31.943Z,50086.86
2023-05-23T12:01:08.573Z,50068.07
2023-05-23T12:03:48.180Z,50072.87
2023-05-23T12:06:19.145Z,50088.46
2023-05-23T12:08:47.908Z,50083.27
2023-05-23T12:11:16.341Z,50085.66
2023-05-23T12:13:45.437Z,50083.27
2023-05-23T12:16:17.761Z,50070.47
2023-05-23T12:18:46.366Z,50069.27
2023-05-23T12:21:14.674Z,50081.66
2023-05-23T12:23:45.847Z,50078.87
2023-05-23T12:26:14.086Z,50083.27
2023-05-23T12:28:45.441Z,50087.26
2023-05-23T12:31:19.412Z,50081.66
2023-05-23T12:33:49.768Z,50074.87
2023-05-23T12:36:26.233Z,50081.27
2023-05-23T12:39:03.101Z,50088.07
2023-05-23T12:41:33.158Z,50087.27
2023-05-23T12:44:03.083Z,50081.66
2023-05-23T12:46:40.739Z,50072.47
2023-05-23T12:49:14.441Z,50075.27
2023-05-23T12:51:42.877Z,50094.06
2023-05-23T12:54:11.642Z,50094.06
2023-05-23T12:56:40.379Z,50084.87
2023-05-23T12:59:08.766Z,50075.66
2023-05-23T13:01:37.032Z,50081.27
2023-05-23T13:04:06.397Z,50076.07
2023-05-23T13:06:34.819Z,50097.66
2023-05-23T13:09:04.877Z,50090.06
2023-05-23T13:11:35.588Z,50099.66
2023-05-23T13:14:04.383Z,50085.67
2023-05-23T13:16:33.364Z,50097.66
2023-05-23T13:19:02.022Z,50084.07
2023-05-23T13:21:30.315Z,50081.27
2023-05-23T13:24:00.660Z,50089.66
2023-05-23T13:26:29.011Z,50105.26
2023-05-23T13:28:57.243Z,50086.46
2023-05-23T13:31:25.589Z,50081.66
2023-05-23T13:33:53.827Z,50092.46
2023-05-23T13:36:22.112Z,50086.86
2023-05-23T13:38:50.247Z,50099.26
2023-05-23T13:41:18.462Z,50100.86
2023-05-23T13:43:47.370Z,50091.66
2023-05-23T13:46:15.639Z,50082.46
2023-05-23T13:48:43.965Z,50070.07
2023-05-23T13:51:12.475Z,50080.87
2023-05-23T13:53:40.753Z,50072.87
2023-05-23T13:56:08.939Z,50081.67
2023-05-23T13:58:37.132Z,50070.87
2023-05-23T14:01:05.402Z,50080.87
2023-05-23T14:03:33.852Z,50088.86
2023-05-23T14:06:02.503Z,50072.07
2023-05-23T14:08:31.682Z,50082.46
2023-05-23T14:11:00.550Z,50092.06
2023-05-23T14:13:29.897Z,50088.86
2023-05-23T14:15:58.372Z,50082.47
2023-05-23T14:18:28.021Z,50062.48
2023-05-23T14:20:57.207Z,50064.88
2023-05-23T14:23:25.458Z,50078.47
2023-05-23T14:25:53.654Z,50069.27
2023-05-23T14:28:21.883Z,50069.27
2023-05-23T14:30:50.083Z,50084.06
2023-05-23T14:33:18.764Z,50086.46
2023-05-23T14:35:47.012Z,50086.86
2023-05-23T14:38:15.107Z,50063.27
2023-05-23T14:40:44.384Z,50066.47
2023-05-23T14:43:13.405Z,50067.27
2023-05-23T14:45:42.601Z,50062.48
2023-05-23T14:48:11.678Z,50061.67
2023-05-23T14:50:40.973Z,50065.68
2023-05-23T14:53:09.216Z,50045.28
2023-05-23T14:55:38.889Z,50037.68
2023-05-23T14:58:07.253Z,50041.28
2023-05-23T15:00:36.119Z,50040.08
2023-05-23T15:03:05.388Z,50056.07
2023-05-23T15:05:33.566Z,50027.69
2023-05-23T15:08:01.911Z,50036.09
2023-05-23T15:10:32.965Z,50035.68
2023-05-23T15:13:03.520Z,50043.28
2023-05-23T15:15:37.953Z,50035.28
2023-05-23T15:18:11.356Z,50038.48
2023-05-23T15:20:39.878Z,50035.29
2023-05-23T15:23:08.387Z,50027.69
2023-05-23T15:25:47.879Z,50033.69
2023-05-23T15:28:17.461Z,50034.89
2023-05-23T15:30:45.718Z,50036.88
2023-05-23T15:33:16.199Z,50019.69
2023-05-23T15:35:44.812Z,50027.69
2023-05-23T15:38:14.739Z,50015.29
2023-05-23T15:40:44.021Z,50025.29
2023-05-23T15:43:14.944Z,50032.09
2023-05-23T15:45:46.763Z,50054.08
2023-05-23T15:48:17.049Z,50066.07
2023-05-23T15:50:46.762Z,50059.68
2023-05-23T15:53:14.986Z,50072.07
2023-05-23T15:55:43.280Z,50059.27
2023-05-23T15:58:13.648Z,50075.27
2023-05-23T16:00:42.507Z,50073.27
2023-05-23T16:03:11.156Z,50066.07
2023-05-23T16:05:40.820Z,50062.07
2023-05-23T16:08:10.031Z,50058.88
2023-05-23T16:10:38.568Z,50054.07
2023-05-23T16:13:07.968Z,50054.08
2023-05-23T16:15:36.700Z,50062.88
2023-05-23T16:18:05.108Z,50038.08
2023-05-23T16:20:35.512Z,50044.08
2023-05-23T16:23:03.910Z,50048.08
2023-05-23T16:25:32.081Z,50043.29
2023-05-23T16:28:00.684Z,50038.48
2023-05-23T16:30:29.190Z,50036.08
2023-05-23T16:32:57.785Z,50058.87
2023-05-23T16:35:26.156Z,50046.48
2023-05-23T16:37:54.368Z,50046.88
2023-05-23T16:40:23.142Z,50036.48
2023-05-23T16:42:52.803Z,50037.68
2023-05-23T16:45:21.878Z,50051.27
2023-05-23T16:47:50.423Z,50067.27
2023-05-23T16:50:19.679Z,50079.67
2023-05-23T16:52:47.973Z,50078.87
2023-05-23T16:55:16.149Z,50083.27
2023-05-23T16:57:44.379Z,50100.86
2023-05-23T17:00:13.456Z,50086.46
2023-05-23T17:02:42.902Z,50097.26
2023-05-23T17:05:11.506Z,50102.06
2023-05-23T17:07:39.719Z,50114.05
2023-05-23T17:10:08.761Z,50086.46
2023-05-23T17:12:38.127Z,50102.06
2023-05-23T17:15:07.701Z,50097.26
2023-05-23T17:17:36.304Z,50116.45
2023-05-23T17:20:04.919Z,50120.45
2023-05-23T17:22:33.374Z,50118.85
2023-05-23T17:25:02.187Z,50118.46
2023-05-23T17:27:30.419Z,50133.65
2023-05-23T17:29:59.953Z,50122.85
2023-05-23T17:32:29.157Z,50116.05
2023-05-23T17:34:57.460Z,50112.05
2023-05-23T17:37:26.858Z,50108.86
2023-05-23T17:39:57.491Z,50113.66
2023-05-23T17:42:26.280Z,50129.65
2023-05-23T17:44:54.621Z,50119.25
2023-05-23T17:47:23.478Z,50126.85
2023-05-23T17:49:51.818Z,50120.05
2023-05-23T17:52:19.955Z,50130.85
2023-05-23T17:54:48.146Z,50123.65
2023-05-23T17:57:17.285Z,50126.45
2023-05-23T17:59:46.935Z,50123.65
2023-05-23T18:02:15.405Z,50120.05
2023-05-23T18:04:43.728Z,50139.25
2023-05-23T18:07:13.184Z,50130.05
2023-05-23T18:09:41.624Z,50134.45
2023-05-23T18:12:11.609Z,50122.85
2023-05-23T18:14:40.079Z,50132.05
2023-05-23T18:17:10.274Z,50130.85
2023-05-23T18:19:38.595Z,50127.25
2023-05-23T18:22:07.002Z,50120.05
2023-05-23T18:24:35.155Z,50119.25
2023-05-23T18:27:04.704Z,50129.65
2023-05-23T18:29:35.916Z,50129.65
2023-05-23T18:32:05.541Z,50138.45
2023-05-23T18:34:34.005Z,50131.65
2023-05-23T18:37:03.249Z,50143.64
2023-05-23T18:39:31.740Z,50127.25
2023-05-23T18:42:00.001Z,50126.05
2023-05-23T18:44:28.368Z,50139.64
2023-05-23T18:46:57.134Z,50134.84
2023-05-23T18:49:25.381Z,50125.65
2023-05-23T18:51:54.613Z,50142.45
2023-05-23T18:54:22.861Z,50129.65
2023-05-23T18:56:51.067Z,50123.25
2023-05-23T18:59:19.256Z,50137.65
2023-05-23T19:01:47.591Z,50130.05
2023-05-23T19:04:16.011Z,50139.65
2023-05-23T19:06:45.656Z,50126.85
2023-05-23T19:09:13.860Z,50144.04
2023-05-23T19:11:42.109Z,50131.24
2023-05-23T19:14:10.458Z,50143.64
2023-05-23T19:16:40.278Z,50152.44
2023-05-23T19:19:08.612Z,50143.24
2023-05-23T19:21:39.672Z,50141.64
2023-05-23T19:24:08.714Z,50138.05
2023-05-23T19:26:37.320Z,50144.45
2023-05-23T19:29:06.517Z,50137.24
2023-05-23T19:31:34.823Z,50144.45
2023-05-23T19:34:06.736Z,50159.64
2023-05-23T19:36:35.747Z,50161.24
2023-05-23T19:39:04.796Z,50166.44
2023-05-23T19:41:33.884Z,50159.64
2023-05-23T19:44:03.943Z,50147.24
2023-05-23T19:46:32.233Z,50156.04
2023-05-23T19:49:01.118Z,50170.04
2023-05-23T19:51:31.827Z,50143.64
2023-05-23T19:54:00.084Z,50157.64
2023-05-23T19:56:28.882Z,50161.64
2023-05-23T19:58:58.609Z,50156.84
2023-05-23T20:01:27.808Z,50163.24
2023-05-23T20:03:56.369Z,50164.44
2023-05-23T20:06:24.653Z,50155.24
2023-05-23T20:08:52.753Z,50167.24
2023-05-23T20:11:22.645Z,50155.24
2023-05-23T20:13:51.157Z,50160.44
2023-05-23T20:16:19.568Z,50173.23
2023-05-23T20:18:47.977Z,50174.43
2023-05-23T20:21:25.333Z,50160.84
2023-05-23T20:23:54.879Z,50165.63
2023-05-23T20:26:24.395Z,50165.24
2023-05-23T20:28:52.686Z,50167.23
2023-05-23T20:31:21.000Z,50157.64
2023-05-23T20:33:52.201Z,50162.84
2023-05-23T20:36:21.916Z,50174.03
2023-05-23T20:38:50.533Z,50176.03
2023-05-23T20:41:19.040Z,50177.23
2023-05-23T20:43:48.432Z,50181.63
2023-05-23T20:46:16.703Z,50164.84
2023-05-23T20:48:45.041Z,50184.03
2023-05-23T20:51:13.711Z,50182.02
2023-05-23T20:53:42.142Z,50186.83
2023-05-23T20:56:10.691Z,50168.44
2023-05-23T20:58:39.056Z,50156.84
2023-05-23T21:01:08.213Z,50192.02
2023-05-23T21:03:36.523Z,50171.23
2023-05-23T21:06:04.919Z,50181.63
2023-05-23T21:08:34.781Z,50174.83
2023-05-23T21:11:03.260Z,50179.63
2023-05-23T21:13:31.520Z,50198.43
2023-05-23T21:15:59.691Z,50171.63
2023-05-23T21:18:27.875Z,50171.23
2023-05-23T21:20:56.046Z,50167.23
2023-05-23T21:23:24.289Z,50180.03
2023-05-23T21:25:53.257Z,50166.04
2023-05-23T21:28:21.474Z,50179.23
2023-05-23T21:30:50.226Z,50184.43
2023-05-23T21:33:18.433Z,50179.23
2023-05-23T21:35:46.719Z,50186.43
2023-05-23T21:38:15.124Z,50189.63
2023-05-23T21:40:44.941Z,50187.63
2023-05-23T21:43:13.310Z,50195.63
2023-05-23T21:45:41.957Z,50178.03
2023-05-23T21:48:10.028Z,50179.23
2023-05-23T21:50:38.218Z,50166.04
2023-05-23T21:53:06.456Z,50185.63
2023-05-23T21:55:34.739Z,50173.23
2023-05-23T21:58:02.922Z,50185.23
2023-05-23T22:00:31.208Z,50176.03
2023-05-23T22:02:59.526Z,50184.03
2023-05-23T22:05:28.115Z,50192.02
2023-05-23T22:07:56.492Z,50186.02
2023-05-23T22:10:24.636Z,50185.63
2023-05-23T22:12:52.865Z,50189.63
2023-05-23T22:15:21.087Z,50184.83
2023-05-23T22:17:49.233Z,50185.63
2023-05-23T22:20:18.531Z,50199.62
2023-05-23T22:22:47.862Z,50186.03
2023-05-23T22:25:16.067Z,50201.62
2023-05-23T22:27:44.213Z,50198.43
2023-05-23T22:30:12.679Z,50186.03
2023-05-23T22:32:41.007Z,50192.43
2023-05-23T22:35:09.669Z,50189.63
2023-05-23T22:37:38.039Z,50181.63
2023-05-23T22:40:10.500Z,50179.63
2023-05-23T22:42:40.181Z,50180.83
2023-05-23T22:45:15.494Z,50195.63
2023-05-23T22:47:44.921Z,50186.83
2023-05-23T22:50:13.139Z,50182.43
2023-05-23T22:52:41.250Z,50200.42
2023-05-23T22:55:09.932Z,50202.82
2023-05-23T22:57:37.993Z,50199.23
2023-05-23T23:00:07.137Z,50177.63
2023-05-23T23:02:35.303Z,50181.23
2023-05-23T23:05:03.584Z,50186.82
2023-05-23T23:07:31.875Z,50181.23
2023-05-23T23:10:00.054Z,50197.23
2023-05-23T23:12:28.294Z,50179.23
2023-05-23T23:14:56.522Z,50186.43
2023-05-23T23:17:26.224Z,50186.82
2023-05-23T23:19:55.789Z,50185.63
2023-05-23T23:22:24.979Z,50182.83
2023-05-23T23:24:53.489Z,50166.43
2023-05-23T23:27:30.879Z,50190.82
2023-05-23T23:29:59.427Z,50183.63
2023-05-23T23:32:27.746Z,50172.83
2023-05-23T23:34:56.029Z,50194.43
2023-05-23T23:37:25.298Z,50175.63
2023-05-23T23:39:53.434Z,50184.43
2023-05-23T23:42:21.677Z,50170.84
2023-05-23T23:44:49.799Z,50183.63
2023-05-23T23:47:18.174Z,50170.04
2023-05-23T23:49:46.545Z,50189.23
2023-05-23T23:52:15.156Z,50178.83
2023-05-23T23:54:43.366Z,50188.03
2023-05-23T23:57:14.235Z,50182.83
2023-05-23T23:59:42.932Z,50191.23
